Adak, Alaska
Current Conditions -  °F | °C
As of 5:16 PM on Wednesday 22 Oct 2014 (Local Time) from PADK Reporting Station
Overcast Overcast  
Wind Chill: 40°   Ceiling: 2700
Heat Index: 46°   Visibility: 10mi
Dew Point: 36°   Wind: 14mph
Humidity: 66%   Direction: 230°SW
Pressure: 30.28"   Gusts: NA
Location:  51.88°N, 176.66°W
Report Text: PADK 230216Z AUTO 23012KT 10SM OVC027 08/02 A3028 RMK AO1
Loading
Personal Weather Stations






























Interactive Weather Map
Tropical Storm Tracking
New forecast layout! Learn more

10-Day Weather Forecast

Advertisements
Track Severe Weather on mobile